Atb Brownsville — WDE5095 — position and weather

sailwx.info

Track history (hours):
 
Tides and Currents Weather Stations Pressure Air Temp Water Temp Dewpoint Dewpoint Depression Visibility Wind Speed Wind Dir Waves Ship Positions

Atb Brownsville

Owner: US Shipping Corp, EDISON, NJ. More information available from US FCC via Universal Licensing System and Coast Guard Vessel Documentation Center.

Last reported at 2018-Apr-21 03:56 UTC. Time now 2018-Apr-21 04:15 UTC.
Position N 40°38' W 074°12'.

Length 184 m; draft 6.7 m.

Type: Tanker. MMSI: 367361960.

Date/timePositionNaut miles runAvg speedWind from/ knotsBaromVisibWave heightAir tempDewpointWater temp
2018-Apr-21 03:56N 40°38' W 074°12'0 0.0
2018-Apr-21 03:26N 40°38' W 074°12'0 0.0
2018-Apr-21 02:56N 40°38' W 074°12'0 0.0
2018-Apr-21 01:44N 40°38' W 074°12'0 0.0
2018-Apr-20 21:14N 40°38' W 074°12'0 0.0
2018-Apr-20 20:56N 40°38' W 074°12'0 0.0
2018-Apr-20 20:05N 40°38' W 074°12'0 0.0
2018-Apr-20 19:56N 40°38' W 074°12'0 0.0
2018-Apr-20 19:29N 40°38' W 074°12'0 0.0
2018-Apr-20 18:59N 40°38' W 074°12'0 0.0
2018-Apr-20 18:14N 40°38' W 074°12'0 0.0
2018-Apr-20 17:56N 40°38' W 074°12'0 0.0
2018-Apr-20 16:41N 40°38' W 074°12'0 0.0
2018-Apr-20 16:29N 40°38' W 074°12'0 0.0
2018-Apr-20 15:59N 40°38' W 074°12'0 0.0
2018-Apr-20 15:26N 40°38' W 074°12'0 0.0
2018-Apr-20 14:59N 40°38' W 074°12'0 0.0
2018-Apr-20 13:44N 40°38' W 074°12'0 0.0
2018-Apr-20 13:28N 40°38' W 074°12'0 0.1
2018-Apr-20 12:59N 40°38' W 074°12'2 4.0
2018-Apr-20 12:30N 40°39' W 074°10'3 6.7
2018-Apr-20 12:00N 40°39' W 074°06'3 5.4
2018-Apr-20 11:30N 40°37' W 074°03'5 9.8
2018-Apr-20 11:00N 40°32' W 074°01'5 9.9
2018-Apr-20 10:29N 40°30' W 073°55'5 9.4
2018-Apr-20 09:59N 40°27' W 073°50'4 7.7
2018-Apr-20 09:28N 40°23' W 073°48'4 7.9
2018-Apr-20 08:56N 40°19' W 073°47'34810.0
2018-Apr-18 22:12N 34°43' W 075°40'312.6
2018-Apr-18 22:00N 34°41' W 075°42'5013.1
2018-Apr-18 18:11N 34°01' W 076°19'45712.1
2018-Apr-17 04:24N 27°06' W 079°59'615.4
2018-Apr-17 04:00N 26°59' W 079°59'815.4
2018-Apr-17 03:30N 26°52' W 079°59'1515.0
2018-Apr-17 02:32N 26°37' W 079°59'114.6
2018-Apr-17 02:29N 26°36' W 079°59'714.6
2018-Apr-17 01:59N 26°29' W 079°60'714.4
2018-Apr-17 01:29N 26°22' W 079°60'714.6
2018-Apr-17 01:00N 26°15' W 079°60'714.8
2018-Apr-17 00:30N 26°08' W 080°00'815.1
2018-Apr-17 00:00N 25°60' W 079°60'815.7
2018-Apr-16 23:30N 25°52' W 080°00'815.8
2018-Apr-16 23:00N 25°44' W 080°00'816.0
2018-Apr-16 22:30N 25°36' W 080°00'815.8
2018-Apr-16 22:00N 25°28' W 080°00'  
2018-Apr-12 07:39N 28°56' W 095°20'9 0.5
2018-Apr-11 14:16N 28°52' W 095°11'1 2.4
2018-Apr-11 13:55N 28°53' W 095°12'1 1.5
2018-Apr-11 13:29N 28°53' W 095°12'0 0.0
2018-Apr-11 13:00N 28°53' W 095°12'0 0.0
2018-Apr-11 12:29N 28°53' W 095°12'0 0.0
2018-Apr-11 11:59N 28°53' W 095°12'0 0.0
2018-Apr-11 11:24N 28°53' W 095°12'0 0.0
2018-Apr-11 10:52N 28°53' W 095°12'0 0.0
2018-Apr-11 07:02N 28°53' W 095°12'0 0.0
2018-Apr-11 06:08N 28°53' W 095°12'0 0.0
2018-Apr-11 05:37N 28°53' W 095°12'  
Track history (hours):
 
Tides and Currents Weather Stations Pressure Air Temp Water Temp Dewpoint Dewpoint Depression Visibility Wind Speed Wind Dir Waves Ship Positions

Atb Brownsville

Owner: US Shipping Corp, EDISON, NJ. More information available from US FCC via Universal Licensing System and Coast Guard Vessel Documentation Center.

Last reported at 2018-Apr-21 03:56 UTC. Time now 2018-Apr-21 04:15 UTC.
Position N 40°38' W 074°12'.

Length 184 m; draft 6.7 m.

Type: Tanker. MMSI: 367361960.

Date/timePositionNaut miles runAvg speedWind from/ knotsBaromVisibWave heightAir tempDewpointWater temp
2018-Apr-21 03:56N 40°38' W 074°12'0 0.0
2018-Apr-21 03:26N 40°38' W 074°12'0 0.0
2018-Apr-21 02:56N 40°38' W 074°12'0 0.0
2018-Apr-21 01:44N 40°38' W 074°12'0 0.0
2018-Apr-20 21:14N 40°38' W 074°12'0 0.0
2018-Apr-20 20:56N 40°38' W 074°12'0 0.0
2018-Apr-20 20:05N 40°38' W 074°12'0 0.0
2018-Apr-20 19:56N 40°38' W 074°12'0 0.0
2018-Apr-20 19:29N 40°38' W 074°12'0 0.0
2018-Apr-20 18:59N 40°38' W 074°12'0 0.0
2018-Apr-20 18:14N 40°38' W 074°12'0 0.0
2018-Apr-20 17:56N 40°38' W 074°12'0 0.0
2018-Apr-20 16:41N 40°38' W 074°12'0 0.0
2018-Apr-20 16:29N 40°38' W 074°12'0 0.0
2018-Apr-20 15:59N 40°38' W 074°12'0 0.0
2018-Apr-20 15:26N 40°38' W 074°12'0 0.0
2018-Apr-20 14:59N 40°38' W 074°12'0 0.0
2018-Apr-20 13:44N 40°38' W 074°12'0 0.0
2018-Apr-20 13:28N 40°38' W 074°12'0 0.1
2018-Apr-20 12:59N 40°38' W 074°12'2 4.0
2018-Apr-20 12:30N 40°39' W 074°10'3 6.7
2018-Apr-20 12:00N 40°39' W 074°06'3 5.4
2018-Apr-20 11:30N 40°37' W 074°03'5 9.8
2018-Apr-20 11:00N 40°32' W 074°01'5 9.9
2018-Apr-20 10:29N 40°30' W 073°55'5 9.4
2018-Apr-20 09:59N 40°27' W 073°50'4 7.7
2018-Apr-20 09:28N 40°23' W 073°48'4 7.9
2018-Apr-20 08:56N 40°19' W 073°47'34810.0
2018-Apr-18 22:12N 34°43' W 075°40'312.6
2018-Apr-18 22:00N 34°41' W 075°42'5013.1
2018-Apr-18 18:11N 34°01' W 076°19'45712.1
2018-Apr-17 04:24N 27°06' W 079°59'615.4
2018-Apr-17 04:00N 26°59' W 079°59'815.4
2018-Apr-17 03:30N 26°52' W 079°59'1515.0
2018-Apr-17 02:32N 26°37' W 079°59'114.6
2018-Apr-17 02:29N 26°36' W 079°59'714.6
2018-Apr-17 01:59N 26°29' W 079°60'714.4
2018-Apr-17 01:29N 26°22' W 079°60'714.6
2018-Apr-17 01:00N 26°15' W 079°60'714.8
2018-Apr-17 00:30N 26°08' W 080°00'815.1
2018-Apr-17 00:00N 25°60' W 079°60'815.7
2018-Apr-16 23:30N 25°52' W 080°00'815.8
2018-Apr-16 23:00N 25°44' W 080°00'816.0
2018-Apr-16 22:30N 25°36' W 080°00'815.8
2018-Apr-16 22:00N 25°28' W 080°00'  
2018-Apr-12 07:39N 28°56' W 095°20'9 0.5
2018-Apr-11 14:16N 28°52' W 095°11'1 2.4
2018-Apr-11 13:55N 28°53' W 095°12'1 1.5
2018-Apr-11 13:29N 28°53' W 095°12'0 0.0
2018-Apr-11 13:00N 28°53' W 095°12'0 0.0
2018-Apr-11 12:29N 28°53' W 095°12'0 0.0
2018-Apr-11 11:59N 28°53' W 095°12'0 0.0
2018-Apr-11 11:24N 28°53' W 095°12'0 0.0
2018-Apr-11 10:52N 28°53' W 095°12'0 0.0
2018-Apr-11 07:02N 28°53' W 095°12'0 0.0
2018-Apr-11 06:08N 28°53' W 095°12'0 0.0
2018-Apr-11 05:37N 28°53' W 095°12'  

Dump ship's entire track history